KDED/DED METAR and TAF weather

Enter ICAO airport designator
Station Type Date Time Source
KDED METAR 2018/01/16 08:55 UTC NOAA

KDED 160855Z AUTO 33004KT 10SM CLR 06/06 A3034 RMK AO2


Station Type Date Time Source
KDED Decoded METAR 2018/01/16 08:55 UTC NOAA

Station name not available
Jan 16, 2018 - 03:55 AM EST / 2018.01.16 0855 UTC
Wind: from the NNW (330 degrees) at 5 MPH (4 KT):0
Visibility: 10 mile(s):0
Sky conditions: clear
Temperature: 42 F (6 C)
Dew Point: 42 F (6 C)
Relative Humidity: 100%
Pressure (altimeter): 30.34 in. Hg (1027 hPa)
ob: KDED 160855Z AUTO 33004KT 10SM CLR 06/06 A3034 RMK AO2
cycle: 9

Station Type Date Time Source
KDED TAF UTC NOAA

Error!


Example: see airport list